Wallace, Louisiana
Current Conditions -  °F | °C
As of 2:55 AM on Friday 24 Oct 2014 (Local Time) from K1L0 Reporting Station
Clear Clear  
Wind Chill: 55°   Ceiling: Unl
Heat Index: 55°   Visibility: 10mi
Dew Point: 52°   Wind: 3mph
Humidity: 91%   Direction: 350°N
Pressure: 30.09"   Gusts: NA
Location:  30.0045°N, 90.6027°W
Report Text: K1L0 240755Z AUTO 35003KT 10SM CLR 13/11 A3009 RMK AO2 T01270113
Loading
Personal Weather Stations






























Interactive Weather Map
Tropical Storm Tracking
New forecast layout! Learn more

10-Day Weather Forecast

Advertisements
Track Severe Weather on mobile